createdAt,value
2023-11-17T00:00:07.058Z,95065.20
2023-11-17T00:02:56.155Z,95066.95
2023-11-17T00:05:23.002Z,95069.92
2023-11-17T00:07:52.824Z,95068.52
2023-11-17T00:10:19.657Z,95065.58
2023-11-17T00:12:46.544Z,95061.65
2023-11-17T00:15:13.498Z,95056.42
2023-11-17T00:17:40.688Z,95052.30
2023-11-17T00:20:08.125Z,95042.20
2023-11-17T00:22:35.229Z,95044.84
2023-11-17T00:25:02.449Z,95045.34
2023-11-17T00:27:29.219Z,95046.55
2023-11-17T00:29:56.066Z,95040.64
2023-11-17T00:32:22.911Z,95031.69
2023-11-17T00:34:49.757Z,95023.80
2023-11-17T00:37:16.925Z,95011.59
2023-11-17T00:39:43.759Z,95007.39
2023-11-17T00:42:11.014Z,95008.84
2023-11-17T00:44:37.868Z,95001.29
2023-11-17T00:47:04.992Z,94993.81
2023-11-17T00:49:31.864Z,94985.58
2023-11-17T00:51:58.702Z,94977.15
2023-11-17T00:54:27.576Z,94972.61
2023-11-17T00:56:55.257Z,94971.70
2023-11-17T00:59:22.855Z,94974.69
2023-11-17T01:01:50.226Z,94969.95
2023-11-17T01:04:17.770Z,94979.72
2023-11-17T01:06:45.456Z,94978.23
2023-11-17T01:09:13.034Z,94978.71
2023-11-17T01:11:39.816Z,94980.67
2023-11-17T01:14:08.866Z,94978.83
2023-11-17T01:16:35.911Z,94969.05
2023-11-17T01:19:03.584Z,94955.01
2023-11-17T01:21:31.624Z,94950.33
2023-11-17T01:24:01.438Z,94943.80
2023-11-17T01:26:28.397Z,94940.60
2023-11-17T01:28:56.034Z,94939.90
2023-11-17T01:31:23.639Z,94930.35
2023-11-17T01:33:50.492Z,94924.33
2023-11-17T01:36:21.255Z,94917.52
2023-11-17T01:38:53.190Z,94915.87
2023-11-17T01:41:22.387Z,94912.98
2023-11-17T01:43:49.325Z,94901.87
2023-11-17T01:46:16.292Z,94896.32
2023-11-17T01:48:43.960Z,94893.13
2023-11-17T01:51:11.685Z,94887.50
2023-11-17T01:53:38.790Z,94879.73
2023-11-17T01:56:06.964Z,94878.89
2023-11-17T01:58:33.909Z,94873.11
2023-11-17T02:01:01.877Z,94867.16
2023-11-17T02:03:28.932Z,94865.17
2023-11-17T02:06:08.548Z,94868.03
2023-11-17T02:09:15.785Z,94866.04
2023-11-17T02:12:05.788Z,94861.86
2023-11-17T02:14:37.285Z,94862.41
2023-11-17T02:17:06.378Z,94856.61
2023-11-17T02:19:37.701Z,94854.26
2023-11-17T02:22:13.495Z,94846.80
2023-11-17T02:25:02.166Z,94836.33
2023-11-17T02:27:51.214Z,94830.95
2023-11-17T02:30:20.352Z,94827.77
2023-11-17T02:32:50.567Z,94826.90
2023-11-17T02:35:18.394Z,94828.90
2023-11-17T02:37:50.738Z,94826.83
2023-11-17T02:40:22.762Z,94823.77
2023-11-17T02:42:52.049Z,94822.84
2023-11-17T02:45:21.079Z,94825.14
2023-11-17T02:47:49.400Z,94821.10
2023-11-17T02:50:22.626Z,94823.64
2023-11-17T02:53:07.271Z,94821.97
2023-11-17T02:55:36.578Z,94810.23
2023-11-17T02:58:04.372Z,94811.39
2023-11-17T03:00:32.389Z,94798.52
2023-11-17T03:02:59.267Z,94801.11
2023-11-17T03:05:28.914Z,94798.72
2023-11-17T03:07:55.889Z,94797.22
2023-11-17T03:10:22.967Z,94792.19
2023-11-17T03:12:55.711Z,94790.56
2023-11-17T03:15:23.389Z,94787.13
2023-11-17T03:17:52.409Z,94784.61
2023-11-17T03:20:19.962Z,94785.27
2023-11-17T03:22:47.369Z,94784.14
2023-11-17T03:25:18.544Z,94784.84
2023-11-17T03:27:50.902Z,94785.33
2023-11-17T03:30:18.653Z,94786.84
2023-11-17T03:32:53.297Z,94782.75
2023-11-17T03:35:21.478Z,94784.17
2023-11-17T03:37:49.916Z,94778.77
2023-11-17T03:40:19.948Z,94778.05
2023-11-17T03:42:47.280Z,94774.34
2023-11-17T03:45:15.813Z,94767.14
2023-11-17T03:47:45.810Z,94772.02
2023-11-17T03:50:14.110Z,94773.28
2023-11-17T03:52:41.667Z,94764.36
2023-11-17T03:55:09.821Z,94764.30
2023-11-17T03:57:37.373Z,94764.91
2023-11-17T04:00:06.356Z,94758.16
2023-11-17T04:02:39.199Z,94762.63
2023-11-17T04:05:06.464Z,94767.27
2023-11-17T04:07:33.245Z,94759.31
2023-11-17T04:10:00.717Z,94750.96
2023-11-17T04:12:27.825Z,94755.95
2023-11-17T04:14:54.625Z,94750.99
2023-11-17T04:17:21.405Z,94749.02
2023-11-17T04:19:48.147Z,94747.47
2023-11-17T04:22:16.408Z,94741.39
2023-11-17T04:24:43.249Z,94746.30
2023-11-17T04:27:11.269Z,94738.24
2023-11-17T04:29:38.119Z,94733.13
2023-11-17T04:32:05.089Z,94734.06
2023-11-17T04:34:32.112Z,94740.66
2023-11-17T04:36:59.171Z,94733.05
2023-11-17T04:39:27.271Z,94729.75
2023-11-17T04:41:54.375Z,94729.63
2023-11-17T04:44:21.154Z,94730.50
2023-11-17T04:46:48.741Z,94725.23
2023-11-17T04:49:15.641Z,94724.30
2023-11-17T04:51:48.907Z,94718.98
2023-11-17T04:54:15.834Z,94715.32
2023-11-17T04:56:42.564Z,94712.04
2023-11-17T04:59:12.643Z,94711.89
2023-11-17T05:01:40.369Z,94721.38
2023-11-17T05:04:07.768Z,94714.27
2023-11-17T05:06:36.623Z,94716.13
2023-11-17T05:09:12.159Z,94724.14
2023-11-17T05:11:39.757Z,94723.48
2023-11-17T05:14:06.904Z,94712.54
2023-11-17T05:16:38.070Z,94711.45
2023-11-17T05:19:05.008Z,94722.35
2023-11-17T05:21:33.182Z,94721.95
2023-11-17T05:24:03.441Z,94719.30
2023-11-17T05:26:30.224Z,94720.15
2023-11-17T05:28:57.069Z,94717.88
2023-11-17T05:31:26.746Z,94713.73
2023-11-17T05:33:53.912Z,94712.77
2023-11-17T05:36:23.955Z,94711.42
2023-11-17T05:38:50.679Z,94709.06
2023-11-17T05:41:19.368Z,94707.25
2023-11-17T05:43:47.736Z,94711.83
2023-11-17T05:46:15.085Z,94707.55
2023-11-17T05:48:41.896Z,94710.72
2023-11-17T05:51:10.730Z,94708.60
2023-11-17T05:53:38.686Z,94702.70
2023-11-17T05:56:08.200Z,94701.66
2023-11-17T05:58:35.817Z,94697.44
2023-11-17T06:01:04.101Z,94691.77
2023-11-17T06:03:35.922Z,94690.52
2023-11-17T06:06:03.423Z,94690.86
2023-11-17T06:08:34.761Z,94687.41
2023-11-17T06:11:02.486Z,94684.98
2023-11-17T06:13:29.734Z,94684.64
2023-11-17T06:15:57.490Z,94681.53
2023-11-17T06:18:24.360Z,94679.45
2023-11-17T06:20:51.761Z,94678.73
2023-11-17T06:23:18.852Z,94676.84
2023-11-17T06:25:46.162Z,94678.55
2023-11-17T06:28:23.592Z,94667.38
2023-11-17T06:30:52.396Z,94666.02
2023-11-17T06:33:21.450Z,94667.36
2023-11-17T06:35:51.989Z,94665.08
2023-11-17T06:38:21.739Z,94670.50
2023-11-17T06:40:49.951Z,94676.08
2023-11-17T06:43:24.219Z,94677.39
2023-11-17T06:45:53.910Z,94677.10
2023-11-17T06:48:22.652Z,94677.61
2023-11-17T06:50:51.692Z,94671.42
2023-11-17T06:53:23.209Z,94674.28
2023-11-17T06:55:52.544Z,94674.15
2023-11-17T06:58:21.511Z,94676.17
2023-11-17T07:00:49.623Z,94678.54
2023-11-17T07:03:18.604Z,94669.23
2023-11-17T07:05:48.070Z,94663.20
2023-11-17T07:08:19.064Z,94659.17
2023-11-17T07:10:48.437Z,94649.12
2023-11-17T07:13:19.724Z,94648.04
2023-11-17T07:15:49.548Z,94647.05
2023-11-17T07:18:17.828Z,94647.21
2023-11-17T07:20:48.471Z,94641.23
2023-11-17T07:23:20.724Z,94640.82
2023-11-17T07:25:59.897Z,94645.55
2023-11-17T07:28:29.112Z,94645.55
2023-11-17T07:30:57.415Z,94645.50
2023-11-17T07:33:28.052Z,94642.98
2023-11-17T07:35:56.744Z,94639.33
2023-11-17T07:38:26.015Z,94632.02
2023-11-17T07:40:56.399Z,94626.90
2023-11-17T07:43:25.815Z,94623.90
2023-11-17T07:45:55.706Z,94621.61
2023-11-17T07:48:23.853Z,94619.86
2023-11-17T07:50:56.036Z,94625.44
2023-11-17T07:53:24.966Z,94626.44
2023-11-17T07:55:56.696Z,94626.17
2023-11-17T07:58:28.127Z,94623.35
2023-11-17T08:01:01.010Z,94621.75
2023-11-17T08:03:34.277Z,94623.11
2023-11-17T08:06:05.589Z,94617.57
2023-11-17T08:08:33.910Z,94605.86
2023-11-17T08:11:06.042Z,94603.45
2023-11-17T08:13:35.818Z,94602.73
2023-11-17T08:16:07.827Z,94602.73
2023-11-17T08:18:39.515Z,94604.01
2023-11-17T08:21:10.216Z,94596.13
2023-11-17T08:23:43.685Z,94596.96
2023-11-17T08:26:17.708Z,94590.18
2023-11-17T08:28:52.982Z,94592.17
2023-11-17T08:31:25.658Z,94589.84
2023-11-17T08:33:56.834Z,94586.38
2023-11-17T08:36:28.531Z,94579.52
2023-11-17T08:39:04.331Z,94575.86
2023-11-17T08:41:41.504Z,94567.40
2023-11-17T08:44:11.264Z,94572.13
2023-11-17T08:46:39.689Z,94574.03
2023-11-17T08:49:08.831Z,94576.98
2023-11-17T08:51:38.801Z,94565.84
2023-11-17T08:54:07.820Z,94565.89
2023-11-17T08:56:37.117Z,94559.06
2023-11-17T08:59:07.214Z,94560.67
2023-11-17T09:01:35.408Z,94565.77
2023-11-17T09:04:04.236Z,94562.42
2023-11-17T09:06:34.962Z,94556.98
2023-11-17T09:09:16.112Z,94548.89
2023-11-17T09:11:53.012Z,94546.39
2023-11-17T09:14:22.084Z,94545.83
2023-11-17T09:16:50.803Z,94543.24
2023-11-17T09:19:19.289Z,94546.80
2023-11-17T09:21:49.043Z,94544.36
2023-11-17T09:24:18.090Z,94543.36
2023-11-17T09:26:48.895Z,94536.21
2023-11-17T09:29:21.080Z,94537.61
2023-11-17T09:31:54.252Z,94544.35
2023-11-17T09:34:24.339Z,94546.52
2023-11-17T09:36:56.690Z,94538.44
2023-11-17T09:39:25.090Z,94540.67
2023-11-17T09:41:57.793Z,94541.24
2023-11-17T09:44:28.838Z,94543.71
2023-11-17T09:47:23.280Z,94539.61
2023-11-17T09:49:54.554Z,94544.77
2023-11-17T09:52:23.734Z,94541.50
2023-11-17T09:54:53.342Z,94537.22
2023-11-17T09:57:22.699Z,94535.13
2023-11-17T09:59:52.840Z,94533.20
2023-11-17T10:02:22.500Z,94526.29
2023-11-17T10:04:56.229Z,94515.15
2023-11-17T10:07:26.301Z,94513.38
2023-11-17T10:09:59.009Z,94511.02
2023-11-17T10:12:28.887Z,94503.10
2023-11-17T10:14:58.317Z,94503.45
2023-11-17T10:17:30.290Z,94504.05
2023-11-17T10:20:05.005Z,94503.21
2023-11-17T10:22:34.470Z,94497.13
2023-11-17T10:25:03.725Z,94494.92
2023-11-17T10:27:32.485Z,94494.66
2023-11-17T10:30:01.640Z,94490.20
2023-11-17T10:32:48.545Z,94487.94
2023-11-17T10:35:32.490Z,94490.06
2023-11-17T10:38:03.011Z,94495.58
2023-11-17T10:40:33.021Z,94497.27
2023-11-17T10:43:06.403Z,94493.00
2023-11-17T10:45:39.113Z,94492.65
2023-11-17T10:48:09.010Z,94491.86
2023-11-17T10:50:40.040Z,94484.69
2023-11-17T10:53:21.771Z,94482.45
2023-11-17T10:55:54.896Z,94475.11
2023-11-17T10:58:23.095Z,94468.85
2023-11-17T11:00:52.101Z,94473.73
2023-11-17T11:03:24.039Z,94467.08
2023-11-17T11:05:53.586Z,94465.70
2023-11-17T11:08:23.817Z,94460.74
2023-11-17T11:10:56.522Z,94461.03
2023-11-17T11:13:29.347Z,94460.65
2023-11-17T11:16:08.798Z,94463.89
2023-11-17T11:18:47.159Z,94465.44
2023-11-17T11:21:19.648Z,94467.97
2023-11-17T11:23:50.429Z,94464.05
2023-11-17T11:26:20.011Z,94460.09
2023-11-17T11:28:49.503Z,94456.89
2023-11-17T11:31:20.938Z,94452.58
2023-11-17T11:33:50.132Z,94455.71
2023-11-17T11:36:19.863Z,94456.03
2023-11-17T11:38:48.980Z,94454.53
2023-11-17T11:41:23.539Z,94447.45
2023-11-17T11:43:53.562Z,94444.60
2023-11-17T11:46:25.361Z,94443.30
2023-11-17T11:49:01.525Z,94443.46
2023-11-17T11:51:32.848Z,94442.73
2023-11-17T11:54:04.870Z,94443.02
2023-11-17T11:56:42.510Z,94447.80
2023-11-17T11:59:11.944Z,94455.29
2023-11-17T12:01:43.829Z,94457.02
2023-11-17T12:04:12.271Z,94448.90
2023-11-17T12:06:50.313Z,94448.30
2023-11-17T12:09:23.129Z,94456.94
2023-11-17T12:11:53.089Z,94459.08
2023-11-17T12:14:32.704Z,94458.58
2023-11-17T12:17:03.034Z,94450.58
2023-11-17T12:19:33.228Z,94450.30
2023-11-17T12:22:02.961Z,94453.49
2023-11-17T12:24:36.458Z,94450.61
2023-11-17T12:27:07.096Z,94451.74
2023-11-17T12:29:40.281Z,94449.58
2023-11-17T12:32:09.887Z,94446.67
2023-11-17T12:34:43.599Z,94451.10
2023-11-17T12:37:14.612Z,94452.48
2023-11-17T12:39:46.325Z,94447.31
2023-11-17T12:42:20.463Z,94444.45
2023-11-17T12:44:49.070Z,94443.56
2023-11-17T12:47:25.731Z,94442.77
2023-11-17T12:50:00.556Z,94438.50
2023-11-17T12:52:29.597Z,94437.73
2023-11-17T12:55:08.958Z,94437.23
2023-11-17T12:57:40.374Z,94429.94
2023-11-17T13:00:16.955Z,94427.74
2023-11-17T13:02:45.445Z,94430.41
2023-11-17T13:05:16.023Z,94427.20
2023-11-17T13:07:47.472Z,94428.10
2023-11-17T13:10:16.771Z,94424.13
2023-11-17T13:12:48.968Z,94421.97
2023-11-17T13:15:17.626Z,94422.27
2023-11-17T13:17:46.476Z,94425.40
2023-11-17T13:20:15.877Z,94428.17
2023-11-17T13:22:45.109Z,94425.28
2023-11-17T13:25:13.551Z,94416.33
2023-11-17T13:27:44.500Z,94412.21
2023-11-17T13:30:15.359Z,94410.09
2023-11-17T13:32:49.033Z,94409.38
2023-11-17T13:35:21.770Z,94407.20
2023-11-17T13:37:52.520Z,94404.75
2023-11-17T13:40:32.630Z,94405.85
2023-11-17T13:43:00.953Z,94404.59
2023-11-17T13:45:34.134Z,94401.96
2023-11-17T13:48:06.424Z,94398.97
2023-11-17T13:50:38.391Z,94395.09
2023-11-17T13:53:12.357Z,94399.16
2023-11-17T13:55:43.999Z,94399.98
2023-11-17T13:58:12.979Z,94392.40
2023-11-17T14:00:43.907Z,94390.48
2023-11-17T14:03:13.257Z,94388.09
2023-11-17T14:05:43.616Z,94386.11
2023-11-17T14:08:14.049Z,94382.55
2023-11-17T14:10:42.933Z,94383.27
2023-11-17T14:13:11.509Z,94383.44
2023-11-17T14:15:48.315Z,94378.16
2023-11-17T14:18:23.300Z,94378.46
2023-11-17T14:20:51.545Z,94379.21
2023-11-17T14:23:19.718Z,94378.78
2023-11-17T14:25:48.737Z,94378.42
2023-11-17T14:28:18.469Z,94378.54
2023-11-17T14:30:47.265Z,94379.77
2023-11-17T14:33:15.840Z,94373.61
2023-11-17T14:35:44.319Z,94374.36
2023-11-17T14:38:13.117Z,94373.89
2023-11-17T14:40:41.526Z,94373.08
2023-11-17T14:43:12.628Z,94369.10
2023-11-17T14:45:41.748Z,94367.30
2023-11-17T14:48:10.532Z,94365.98
2023-11-17T14:50:38.763Z,94365.89
2023-11-17T14:53:07.664Z,94368.08
2023-11-17T14:55:37.527Z,94371.71
2023-11-17T14:58:07.974Z,94365.90
2023-11-17T15:00:40.802Z,94360.70
2023-11-17T15:03:10.526Z,94362.46
2023-11-17T15:05:43.557Z,94361.92
2023-11-17T15:08:13.427Z,94359.00
2023-11-17T15:10:43.074Z,94356.36
2023-11-17T15:13:11.984Z,94359.77
2023-11-17T15:15:43.258Z,94360.33
2023-11-17T15:18:13.985Z,94356.26
2023-11-17T15:20:43.792Z,94353.11
2023-11-17T15:23:12.593Z,94354.05
2023-11-17T15:25:41.680Z,94352.71
2023-11-17T15:28:21.207Z,94346.25
2023-11-17T15:30:55.559Z,94349.36
2023-11-17T15:33:24.190Z,94349.36
2023-11-17T15:35:52.358Z,94338.89
2023-11-17T15:38:27.300Z,94337.73
2023-11-17T15:40:58.414Z,94336.05
2023-11-17T15:43:31.310Z,94336.59
2023-11-17T15:46:01.949Z,94334.31
2023-11-17T15:48:31.406Z,94333.91
2023-11-17T15:51:04.503Z,94332.30
2023-11-17T15:53:34.003Z,94330.64
2023-11-17T15:56:04.113Z,94330.95
2023-11-17T15:58:32.490Z,94332.23
2023-11-17T16:01:05.604Z,94333.90
2023-11-17T16:03:36.573Z,94336.14
2023-11-17T16:06:08.039Z,94336.82
2023-11-17T16:08:37.749Z,94341.77
2023-11-17T16:11:13.144Z,94341.15
2023-11-17T16:13:42.875Z,94341.75
2023-11-17T16:16:14.522Z,94341.80
2023-11-17T16:18:44.525Z,94343.29
2023-11-17T16:21:12.705Z,94343.87
2023-11-17T16:23:40.966Z,94345.96
2023-11-17T16:26:12.475Z,94346.58
2023-11-17T16:28:41.069Z,94343.48
2023-11-17T16:31:14.205Z,94336.52
2023-11-17T16:33:43.688Z,94335.36
2023-11-17T16:36:14.968Z,94336.50
2023-11-17T16:38:44.389Z,94337.89
2023-11-17T16:41:12.714Z,94333.79
2023-11-17T16:43:40.862Z,94333.75
2023-11-17T16:46:12.774Z,94332.64
2023-11-17T16:48:41.785Z,94333.17
2023-11-17T16:51:14.107Z,94330.54
2023-11-17T16:53:42.579Z,94332.17
2023-11-17T16:56:10.800Z,94327.31
2023-11-17T16:58:41.948Z,94330.31
2023-11-17T17:01:10.975Z,94331.32
2023-11-17T17:03:40.165Z,94330.72
2023-11-17T17:06:14.464Z,94330.85
2023-11-17T17:08:42.758Z,94325.12
2023-11-17T17:11:10.878Z,94326.27
2023-11-17T17:13:41.565Z,94324.32
2023-11-17T17:16:10.431Z,94328.14
2023-11-17T17:18:41.055Z,94325.98
2023-11-17T17:21:09.357Z,94330.19
2023-11-17T17:23:37.638Z,94328.55
2023-11-17T17:26:06.523Z,94328.94
2023-11-17T17:28:35.723Z,94330.72
2023-11-17T17:31:04.722Z,94327.39
2023-11-17T17:33:33.226Z,94325.53
2023-11-17T17:36:02.891Z,94327.66
2023-11-17T17:38:34.768Z,94330.08
2023-11-17T17:41:03.031Z,94332.32
2023-11-17T17:43:31.209Z,94328.98
2023-11-17T17:46:00.193Z,94334.33
2023-11-17T17:48:28.318Z,94332.40
2023-11-17T17:50:58.398Z,94336.43
2023-11-17T17:53:27.080Z,94332.75
2023-11-17T17:55:55.175Z,94332.77
2023-11-17T17:58:23.554Z,94332.73
2023-11-17T18:00:51.848Z,94335.29
2023-11-17T18:03:21.187Z,94334.17
2023-11-17T18:05:51.244Z,94333.59
2023-11-17T18:08:19.566Z,94338.48
2023-11-17T18:10:47.816Z,94337.90
2023-11-17T18:13:16.045Z,94339.30
2023-11-17T18:15:44.813Z,94339.42
2023-11-17T18:18:15.195Z,94342.33
2023-11-17T18:20:44.135Z,94344.10
2023-11-17T18:23:12.270Z,94343.30
2023-11-17T18:25:40.369Z,94347.13
2023-11-17T18:28:10.857Z,94346.88
2023-11-17T18:30:41.793Z,94346.11
2023-11-17T18:33:11.507Z,94344.10
2023-11-17T18:35:39.849Z,94346.56
2023-11-17T18:38:07.883Z,94347.60
2023-11-17T18:40:37.474Z,94349.05
2023-11-17T18:43:06.836Z,94347.73
2023-11-17T18:45:35.001Z,94347.86
2023-11-17T18:48:03.327Z,94352.91
2023-11-17T18:50:41.235Z,94349.50
2023-11-17T18:53:09.616Z,94349.80
2023-11-17T18:55:38.598Z,94353.33
2023-11-17T18:58:06.849Z,94353.08
2023-11-17T19:00:36.475Z,94356.41
2023-11-17T19:03:04.733Z,94356.25
2023-11-17T19:05:35.456Z,94353.38
2023-11-17T19:08:04.888Z,94356.56
2023-11-17T19:10:33.100Z,94352.98
2023-11-17T19:13:02.125Z,94355.04
2023-11-17T19:15:30.444Z,94354.63
2023-11-17T19:17:59.421Z,94356.49
2023-11-17T19:20:28.210Z,94353.84
2023-11-17T19:22:56.488Z,94349.88
2023-11-17T19:25:25.594Z,94350.94
2023-11-17T19:27:56.040Z,94354.15
2023-11-17T19:30:24.114Z,94353.41
2023-11-17T19:32:57.319Z,94358.67
2023-11-17T19:35:25.776Z,94351.71
2023-11-17T19:37:54.041Z,94353.30
2023-11-17T19:40:25.815Z,94353.58
2023-11-17T19:42:53.982Z,94357.39
2023-11-17T19:45:22.224Z,94353.91
2023-11-17T19:47:51.298Z,94358.19
2023-11-17T19:50:20.888Z,94353.20
2023-11-17T19:52:51.310Z,94356.61
2023-11-17T19:55:27.795Z,94358.89
2023-11-17T19:57:56.987Z,94361.12
2023-11-17T20:00:26.681Z,94360.84
2023-11-17T20:02:57.052Z,94359.63
2023-11-17T20:05:29.565Z,94359.39
2023-11-17T20:08:00.570Z,94355.50
2023-11-17T20:10:31.404Z,94356.91
2023-11-17T20:12:59.915Z,94360.65
2023-11-17T20:15:30.103Z,94360.22
2023-11-17T20:17:59.279Z,94359.50
2023-11-17T20:20:29.987Z,94353.14
2023-11-17T20:22:59.427Z,94354.68
2023-11-17T20:25:29.554Z,94353.11
2023-11-17T20:28:01.263Z,94355.55
2023-11-17T20:30:30.209Z,94355.18
2023-11-17T20:32:59.200Z,94356.08
2023-11-17T20:35:29.605Z,94355.24
2023-11-17T20:37:58.347Z,94353.34
2023-11-17T20:40:26.562Z,94353.52
2023-11-17T20:42:55.837Z,94358.19
2023-11-17T20:45:25.093Z,94359.20
2023-11-17T20:47:53.911Z,94361.95
2023-11-17T20:50:26.235Z,94360.89
2023-11-17T20:52:55.097Z,94362.51
2023-11-17T20:55:24.432Z,94361.95
2023-11-17T20:57:57.652Z,94361.45
2023-11-17T21:00:27.124Z,94364.70
2023-11-17T21:02:59.492Z,94364.70
2023-11-17T21:05:29.866Z,94367.63
2023-11-17T21:07:58.857Z,94366.09
2023-11-17T21:10:28.244Z,94367.11
2023-11-17T21:12:57.365Z,94366.11
2023-11-17T21:15:28.125Z,94365.74
2023-11-17T21:17:56.969Z,94369.27
2023-11-17T21:20:25.360Z,94375.84
2023-11-17T21:22:53.944Z,94374.45
2023-11-17T21:25:23.664Z,94373.80
2023-11-17T21:27:53.854Z,94374.85
2023-11-17T21:30:24.903Z,94375.31
2023-11-17T21:32:55.047Z,94374.82
2023-11-17T21:35:23.942Z,94374.16
2023-11-17T21:37:53.935Z,94374.39
2023-11-17T21:40:23.653Z,94373.56
2023-11-17T21:42:52.974Z,94372.98
2023-11-17T21:45:23.835Z,94376.65
2023-11-17T21:47:54.904Z,94376.15
2023-11-17T21:50:25.383Z,94375.93
2023-11-17T21:52:57.482Z,94380.02
2023-11-17T21:55:31.796Z,94384.46
2023-11-17T21:57:59.839Z,94381.18
2023-11-17T22:00:28.851Z,94381.94
2023-11-17T22:02:57.525Z,94381.20
2023-11-17T22:05:26.930Z,94380.27
2023-11-17T22:07:55.256Z,94382.17
2023-11-17T22:10:23.545Z,94382.57
2023-11-17T22:12:51.756Z,94380.16
2023-11-17T22:15:20.917Z,94381.88
2023-11-17T22:17:50.236Z,94384.92
2023-11-17T22:20:20.422Z,94388.24
2023-11-17T22:22:52.013Z,94389.52
2023-11-17T22:25:22.826Z,94389.63
2023-11-17T22:27:53.414Z,94391.65
2023-11-17T22:30:25.838Z,94393.42
2023-11-17T22:32:56.592Z,94393.29
2023-11-17T22:35:26.529Z,94395.07
2023-11-17T22:37:55.697Z,94396.48
2023-11-17T22:40:25.098Z,94396.01
2023-11-17T22:42:54.531Z,94395.58
2023-11-17T22:45:23.717Z,94396.31
2023-11-17T22:47:53.273Z,94400.41
2023-11-17T22:50:23.125Z,94397.40
2023-11-17T22:52:55.696Z,94398.80
2023-11-17T22:55:24.455Z,94401.16
2023-11-17T22:57:53.237Z,94399.34
2023-11-17T23:00:39.950Z,94400.55
2023-11-17T23:03:13.267Z,94402.39
2023-11-17T23:05:44.817Z,94396.17
2023-11-17T23:08:13.853Z,94399.67
2023-11-17T23:10:43.059Z,94396.30
2023-11-17T23:13:13.247Z,94394.52
2023-11-17T23:15:42.374Z,94392.67
2023-11-17T23:18:14.399Z,94392.39
2023-11-17T23:20:43.983Z,94394.33
2023-11-17T23:23:13.133Z,94398.06
2023-11-17T23:25:41.621Z,94398.23
2023-11-17T23:28:11.009Z,94395.13
2023-11-17T23:30:41.374Z,94392.48
2023-11-17T23:33:10.139Z,94394.36
2023-11-17T23:35:38.785Z,94394.95
2023-11-17T23:38:09.317Z,94397.23
2023-11-17T23:40:37.712Z,94401.30
2023-11-17T23:43:05.984Z,94401.13
2023-11-17T23:45:34.595Z,94399.76
2023-11-17T23:48:03.794Z,94403.75
2023-11-17T23:50:36.109Z,94407.67
2023-11-17T23:53:07.279Z,94414.42
2023-11-17T23:55:36.710Z,94415.25
2023-11-17T23:58:05.414Z,94411.98
